sensor_id;sensor_type;location;lat;lon;timestamp;pressure;altitude;pressure_sealevel;temperature;humidity
6514;BME280;3290;47.716;9.070;2023-12-14T00:01:56;95950.31;;;8.89;100.00
6514;BME280;3290;47.716;9.070;2023-12-14T00:04:21;95946.09;;;8.88;100.00
6514;BME280;3290;47.716;9.070;2023-12-14T00:06:47;95946.91;;;8.77;100.00
6514;BME280;3290;47.716;9.070;2023-12-14T00:09:12;95947.91;;;8.76;100.00
6514;BME280;3290;47.716;9.070;2023-12-14T00:11:38;95939.63;;;8.79;100.00
6514;BME280;3290;47.716;9.070;2023-12-14T00:14:06;95944.41;;;8.82;100.00
6514;BME280;3290;47.716;9.070;2023-12-14T00:16:32;95949.16;;;8.85;100.00
6514;BME280;3290;47.716;9.070;2023-12-14T00:18:58;95950.53;;;8.99;100.00
6514;BME280;3290;47.716;9.070;2023-12-14T00:21:23;95962.44;;;9.06;100.00
6514;BME280;3290;47.716;9.070;2023-12-14T00:23:49;95962.22;;;9.19;100.00
6514;BME280;3290;47.716;9.070;2023-12-14T00:26:14;95969.38;;;9.01;100.00
6514;BME280;3290;47.716;9.070;2023-12-14T00:28:40;95974.03;;;9.10;100.00
6514;BME280;3290;47.716;9.070;2023-12-14T00:31:05;95973.59;;;9.02;100.00
6514;BME280;3290;47.716;9.070;2023-12-14T00:33:31;95979.03;;;9.12;100.00
6514;BME280;3290;47.716;9.070;2023-12-14T00:35:57;95983.47;;;9.11;100.00
6514;BME280;3290;47.716;9.070;2023-12-14T00:38:23;95988.25;;;9.14;100.00
6514;BME280;3290;47.716;9.070;2023-12-14T00:40:48;95982.91;;;9.09;100.00
6514;BME280;3290;47.716;9.070;2023-12-14T00:43:13;95990.16;;;9.18;100.00
6514;BME280;3290;47.716;9.070;2023-12-14T00:45:39;95996.28;;;9.13;100.00
6514;BME280;3290;47.716;9.070;2023-12-14T00:48:06;95993.34;;;9.09;100.00
6514;BME280;3290;47.716;9.070;2023-12-14T00:50:31;95999.16;;;9.00;100.00
6514;BME280;3290;47.716;9.070;2023-12-14T00:52:57;95998.66;;;9.25;100.00
6514;BME280;3290;47.716;9.070;2023-12-14T00:55:22;96001.41;;;9.30;100.00
6514;BME280;3290;47.716;9.070;2023-12-14T00:57:47;95998.56;;;9.09;100.00
6514;BME280;3290;47.716;9.070;2023-12-14T01:00:13;96005.41;;;9.10;100.00
6514;BME280;3290;47.716;9.070;2023-12-14T01:02:39;96012.91;;;9.07;100.00
6514;BME280;3290;47.716;9.070;2023-12-14T01:05:04;96018.44;;;8.99;100.00
6514;BME280;3290;47.716;9.070;2023-12-14T01:07:30;96024.78;;;8.80;100.00
6514;BME280;3290;47.716;9.070;2023-12-14T01:09:55;96022.97;;;8.80;100.00
6514;BME280;3290;47.716;9.070;2023-12-14T01:12:20;96025.28;;;9.00;100.00
6514;BME280;3290;47.716;9.070;2023-12-14T01:14:46;96028.09;;;8.98;100.00
6514;BME280;3290;47.716;9.070;2023-12-14T01:17:11;96035.50;;;9.01;100.00
6514;BME280;3290;47.716;9.070;2023-12-14T01:19:39;96038.78;;;8.97;100.00
6514;BME280;3290;47.716;9.070;2023-12-14T01:22:05;96036.50;;;9.00;100.00
6514;BME280;3290;47.716;9.070;2023-12-14T01:24:30;96040.81;;;9.06;100.00
6514;BME280;3290;47.716;9.070;2023-12-14T01:26:55;96045.25;;;9.06;100.00
6514;BME280;3290;47.716;9.070;2023-12-14T01:29:21;96047.75;;;9.01;100.00
6514;BME280;3290;47.716;9.070;2023-12-14T01:31:46;96048.31;;;9.03;100.00
6514;BME280;3290;47.716;9.070;2023-12-14T01:34:11;96059.78;;;9.02;100.00
6514;BME280;3290;47.716;9.070;2023-12-14T01:36:37;96061.63;;;9.01;100.00
6514;BME280;3290;47.716;9.070;2023-12-14T01:39:03;96069.69;;;9.00;100.00
6514;BME280;3290;47.716;9.070;2023-12-14T01:41:28;96071.81;;;9.03;100.00
6514;BME280;3290;47.716;9.070;2023-12-14T01:43:53;96076.59;;;9.06;100.00
6514;BME280;3290;47.716;9.070;2023-12-14T01:46:19;96074.00;;;9.06;100.00
6514;BME280;3290;47.716;9.070;2023-12-14T01:48:44;96084.22;;;9.07;100.00
6514;BME280;3290;47.716;9.070;2023-12-14T01:51:09;96082.97;;;8.98;100.00
6514;BME280;3290;47.716;9.070;2023-12-14T01:53:35;96078.53;;;8.99;100.00
6514;BME280;3290;47.716;9.070;2023-12-14T01:56:00;96084.78;;;8.98;100.00
6514;BME280;3290;47.716;9.070;2023-12-14T01:58:25;96087.28;;;8.93;100.00
6514;BME280;3290;47.716;9.070;2023-12-14T02:01:03;96085.91;;;9.02;100.00
6514;BME280;3290;47.716;9.070;2023-12-14T02:03:30;96090.00;;;8.98;100.00
6514;BME280;3290;47.716;9.070;2023-12-14T02:05:56;96098.84;;;8.97;100.00
6514;BME280;3290;47.716;9.070;2023-12-14T02:08:24;96096.38;;;9.02;100.00
6514;BME280;3290;47.716;9.070;2023-12-14T02:10:49;96108.03;;;8.99;100.00
6514;BME280;3290;47.716;9.070;2023-12-14T02:13:14;96108.41;;;9.03;100.00
6514;BME280;3290;47.716;9.070;2023-12-14T02:15:40;96113.16;;;8.94;100.00
6514;BME280;3290;47.716;9.070;2023-12-14T02:18:05;96118.84;;;9.03;100.00
6514;BME280;3290;47.716;9.070;2023-12-14T02:20:30;96114.78;;;9.07;100.00
6514;BME280;3290;47.716;9.070;2023-12-14T02:22:56;96116.00;;;8.93;100.00
6514;BME280;3290;47.716;9.070;2023-12-14T02:25:22;96116.31;;;8.85;100.00
6514;BME280;3290;47.716;9.070;2023-12-14T02:27:49;96120.03;;;8.77;100.00
6514;BME280;3290;47.716;9.070;2023-12-14T02:30:15;96128.19;;;8.70;100.00
6514;BME280;3290;47.716;9.070;2023-12-14T02:32:41;96127.50;;;8.74;100.00
6514;BME280;3290;47.716;9.070;2023-12-14T02:35:07;96134.34;;;8.75;100.00
6514;BME280;3290;47.716;9.070;2023-12-14T02:37:33;96128.94;;;8.88;100.00
6514;BME280;3290;47.716;9.070;2023-12-14T02:39:59;96130.34;;;9.02;100.00
6514;BME280;3290;47.716;9.070;2023-12-14T02:42:25;96136.56;;;9.01;100.00
6514;BME280;3290;47.716;9.070;2023-12-14T02:44:52;96133.66;;;9.09;100.00
6514;BME280;3290;47.716;9.070;2023-12-14T02:47:18;96141.78;;;9.01;100.00
6514;BME280;3290;47.716;9.070;2023-12-14T02:49:44;96148.28;;;9.10;100.00
6514;BME280;3290;47.716;9.070;2023-12-14T02:52:09;96152.84;;;9.14;100.00
6514;BME280;3290;47.716;9.070;2023-12-14T02:54:36;96154.19;;;9.05;100.00
6514;BME280;3290;47.716;9.070;2023-12-14T02:57:01;96154.47;;;8.86;100.00
6514;BME280;3290;47.716;9.070;2023-12-14T02:59:27;96167.47;;;8.75;100.00
6514;BME280;3290;47.716;9.070;2023-12-14T03:01:52;96163.16;;;8.98;100.00
6514;BME280;3290;47.716;9.070;2023-12-14T03:04:17;96170.91;;;8.57;100.00
6514;BME280;3290;47.716;9.070;2023-12-14T03:06:43;96173.66;;;8.62;100.00
6514;BME280;3290;47.716;9.070;2023-12-14T03:09:08;96175.44;;;8.79;100.00
6514;BME280;3290;47.716;9.070;2023-12-14T03:11:33;96176.00;;;8.70;100.00
6514;BME280;3290;47.716;9.070;2023-12-14T03:13:59;96173.38;;;8.70;100.00
6514;BME280;3290;47.716;9.070;2023-12-14T03:16:24;96181.47;;;8.80;100.00
6514;BME280;3290;47.716;9.070;2023-12-14T03:18:49;96185.72;;;8.92;100.00
6514;BME280;3290;47.716;9.070;2023-12-14T03:21:18;96190.41;;;9.02;100.00
6514;BME280;3290;47.716;9.070;2023-12-14T03:23:44;96189.00;;;8.88;100.00
6514;BME280;3290;47.716;9.070;2023-12-14T03:26:10;96191.47;;;8.83;100.00
6514;BME280;3290;47.716;9.070;2023-12-14T03:28:35;96196.06;;;8.99;100.00
6514;BME280;3290;47.716;9.070;2023-12-14T03:31:01;96202.63;;;8.90;100.00
6514;BME280;3290;47.716;9.070;2023-12-14T03:33:26;96205.09;;;8.85;100.00
6514;BME280;3290;47.716;9.070;2023-12-14T03:35:51;96209.09;;;8.87;100.00
6514;BME280;3290;47.716;9.070;2023-12-14T03:38:17;96215.16;;;8.99;100.00
6514;BME280;3290;47.716;9.070;2023-12-14T03:40:42;96210.59;;;8.95;100.00
6514;BME280;3290;47.716;9.070;2023-12-14T03:43:07;96209.56;;;8.96;100.00
6514;BME280;3290;47.716;9.070;2023-12-14T03:45:33;96207.44;;;8.93;100.00
6514;BME280;3290;47.716;9.070;2023-12-14T03:47:58;96212.66;;;8.93;100.00
6514;BME280;3290;47.716;9.070;2023-12-14T03:50:23;96214.94;;;9.01;100.00
6514;BME280;3290;47.716;9.070;2023-12-14T03:52:49;96219.69;;;8.75;100.00
6514;BME280;3290;47.716;9.070;2023-12-14T03:55:14;96216.31;;;8.74;100.00
6514;BME280;3290;47.716;9.070;2023-12-14T03:57:40;96224.31;;;8.90;100.00
6514;BME280;3290;47.716;9.070;2023-12-14T04:00:09;96227.13;;;9.07;100.00
6514;BME280;3290;47.716;9.070;2023-12-14T04:02:35;96231.84;;;8.98;100.00
6514;BME280;3290;47.716;9.070;2023-12-14T04:05:00;96234.25;;;9.00;100.00
6514;BME280;3290;47.716;9.070;2023-12-14T04:07:25;96239.47;;;9.00;100.00
6514;BME280;3290;47.716;9.070;2023-12-14T04:09:51;96248.41;;;8.92;100.00
6514;BME280;3290;47.716;9.070;2023-12-14T04:12:16;96248.94;;;8.83;100.00
6514;BME280;3290;47.716;9.070;2023-12-14T04:14:42;96249.66;;;8.72;100.00
6514;BME280;3290;47.716;9.070;2023-12-14T04:17:07;96260.63;;;8.80;100.00
6514;BME280;3290;47.716;9.070;2023-12-14T04:19:32;96265.97;;;8.68;100.00
6514;BME280;3290;47.716;9.070;2023-12-14T04:21:58;96262.78;;;8.83;100.00
6514;BME280;3290;47.716;9.070;2023-12-14T04:24:23;96278.25;;;8.49;100.00
6514;BME280;3290;47.716;9.070;2023-12-14T04:26:48;96279.06;;;8.85;100.00
6514;BME280;3290;47.716;9.070;2023-12-14T04:29:14;96281.72;;;8.97;100.00
6514;BME280;3290;47.716;9.070;2023-12-14T04:31:39;96287.66;;;9.04;100.00
6514;BME280;3290;47.716;9.070;2023-12-14T04:34:05;96287.72;;;8.97;100.00
6514;BME280;3290;47.716;9.070;2023-12-14T04:36:30;96291.06;;;8.86;100.00
6514;BME280;3290;47.716;9.070;2023-12-14T04:38:55;96296.66;;;8.90;100.00
6514;BME280;3290;47.716;9.070;2023-12-14T04:41:21;96298.69;;;8.88;100.00
6514;BME280;3290;47.716;9.070;2023-12-14T04:43:46;96305.81;;;8.81;100.00
6514;BME280;3290;47.716;9.070;2023-12-14T04:46:11;96313.81;;;8.68;100.00
6514;BME280;3290;47.716;9.070;2023-12-14T04:48:37;96322.06;;;8.65;100.00
6514;BME280;3290;47.716;9.070;2023-12-14T04:51:02;96330.03;;;8.70;100.00
6514;BME280;3290;47.716;9.070;2023-12-14T04:53:28;96338.66;;;8.71;100.00
6514;BME280;3290;47.716;9.070;2023-12-14T04:55:53;96329.56;;;8.55;100.00
6514;BME280;3290;47.716;9.070;2023-12-14T04:58:18;96338.31;;;8.67;100.00
6514;BME280;3290;47.716;9.070;2023-12-14T05:00:44;96340.03;;;8.73;100.00
6514;BME280;3290;47.716;9.070;2023-12-14T05:03:09;96349.47;;;8.74;100.00
6514;BME280;3290;47.716;9.070;2023-12-14T05:05:35;96359.50;;;8.77;100.00
6514;BME280;3290;47.716;9.070;2023-12-14T05:08:00;96360.28;;;8.77;100.00
6514;BME280;3290;47.716;9.070;2023-12-14T05:10:26;96365.88;;;8.81;100.00
6514;BME280;3290;47.716;9.070;2023-12-14T05:12:51;96369.66;;;8.85;100.00
6514;BME280;3290;47.716;9.070;2023-12-14T05:15:16;96359.50;;;8.77;100.00
6514;BME280;3290;47.716;9.070;2023-12-14T05:17:42;96376.75;;;8.78;100.00
6514;BME280;3290;47.716;9.070;2023-12-14T05:20:08;96369.06;;;8.83;100.00
6514;BME280;3290;47.716;9.070;2023-12-14T05:22:33;96375.09;;;8.83;100.00
6514;BME280;3290;47.716;9.070;2023-12-14T05:24:59;96385.16;;;8.80;100.00
6514;BME280;3290;47.716;9.070;2023-12-14T05:27:24;96388.38;;;8.82;100.00
6514;BME280;3290;47.716;9.070;2023-12-14T05:29:51;96389.91;;;8.72;100.00
6514;BME280;3290;47.716;9.070;2023-12-14T05:32:16;96394.25;;;8.77;100.00
6514;BME280;3290;47.716;9.070;2023-12-14T05:34:42;96388.50;;;8.87;100.00
6514;BME280;3290;47.716;9.070;2023-12-14T05:37:07;96399.97;;;8.68;100.00
6514;BME280;3290;47.716;9.070;2023-12-14T05:39:32;96402.94;;;8.72;100.00
6514;BME280;3290;47.716;9.070;2023-12-14T05:41:58;96409.41;;;8.87;100.00
6514;BME280;3290;47.716;9.070;2023-12-14T05:44:23;96415.34;;;8.76;100.00
6514;BME280;3290;47.716;9.070;2023-12-14T05:46:49;96424.22;;;8.75;100.00
6514;BME280;3290;47.716;9.070;2023-12-14T05:49:15;96413.16;;;8.73;100.00
6514;BME280;3290;47.716;9.070;2023-12-14T05:51:40;96422.59;;;8.74;100.00
6514;BME280;3290;47.716;9.070;2023-12-14T05:54:06;96429.84;;;8.72;100.00
6514;BME280;3290;47.716;9.070;2023-12-14T05:56:32;96426.56;;;8.77;100.00
6514;BME280;3290;47.716;9.070;2023-12-14T05:58:57;96429.44;;;8.75;100.00
6514;BME280;3290;47.716;9.070;2023-12-14T06:01:23;96431.00;;;8.76;100.00
6514;BME280;3290;47.716;9.070;2023-12-14T06:03:49;96435.41;;;8.82;100.00
6514;BME280;3290;47.716;9.070;2023-12-14T06:06:15;96441.94;;;8.67;100.00
6514;BME280;3290;47.716;9.070;2023-12-14T06:08:40;96442.63;;;8.80;100.00
6514;BME280;3290;47.716;9.070;2023-12-14T06:11:06;96452.22;;;8.86;100.00
6514;BME280;3290;47.716;9.070;2023-12-14T06:13:32;96457.66;;;8.84;100.00
6514;BME280;3290;47.716;9.070;2023-12-14T06:15:58;96457.44;;;8.86;100.00
6514;BME280;3290;47.716;9.070;2023-12-14T06:18:24;96471.63;;;8.72;100.00
6514;BME280;3290;47.716;9.070;2023-12-14T06:20:49;96476.44;;;8.75;100.00
6514;BME280;3290;47.716;9.070;2023-12-14T06:23:15;96489.41;;;8.57;100.00
6514;BME280;3290;47.716;9.070;2023-12-14T06:25:40;96495.59;;;8.38;100.00
6514;BME280;3290;47.716;9.070;2023-12-14T06:28:06;96490.59;;;8.37;100.00
6514;BME280;3290;47.716;9.070;2023-12-14T06:30:31;96496.03;;;8.29;100.00
6514;BME280;3290;47.716;9.070;2023-12-14T06:32:56;96492.03;;;8.33;100.00
6514;BME280;3290;47.716;9.070;2023-12-14T06:35:22;96496.59;;;8.38;100.00
6514;BME280;3290;47.716;9.070;2023-12-14T06:37:47;96496.38;;;8.39;100.00
6514;BME280;3290;47.716;9.070;2023-12-14T06:40:13;96497.19;;;8.39;100.00
6514;BME280;3290;47.716;9.070;2023-12-14T06:42:39;96513.59;;;8.77;100.00
6514;BME280;3290;47.716;9.070;2023-12-14T06:45:05;96518.63;;;8.72;100.00
6514;BME280;3290;47.716;9.070;2023-12-14T06:47:31;96523.09;;;8.65;100.00
6514;BME280;3290;47.716;9.070;2023-12-14T06:49:56;96525.53;;;8.60;100.00
6514;BME280;3290;47.716;9.070;2023-12-14T06:52:24;96528.88;;;8.74;100.00
6514;BME280;3290;47.716;9.070;2023-12-14T06:54:50;96536.78;;;8.61;100.00
6514;BME280;3290;47.716;9.070;2023-12-14T06:57:15;96541.88;;;8.80;100.00
6514;BME280;3290;47.716;9.070;2023-12-14T06:59:40;96543.97;;;8.72;100.00
6514;BME280;3290;47.716;9.070;2023-12-14T07:02:07;96554.69;;;8.57;100.00
6514;BME280;3290;47.716;9.070;2023-12-14T07:04:32;96554.84;;;8.62;100.00
6514;BME280;3290;47.716;9.070;2023-12-14T07:06:58;96560.91;;;8.63;100.00
6514;BME280;3290;47.716;9.070;2023-12-14T07:09:24;96558.03;;;8.71;100.00
6514;BME280;3290;47.716;9.070;2023-12-14T07:11:49;96568.06;;;8.74;100.00
6514;BME280;3290;47.716;9.070;2023-12-14T07:14:14;96566.03;;;8.76;100.00
6514;BME280;3290;47.716;9.070;2023-12-14T07:16:40;96567.13;;;8.62;100.00
6514;BME280;3290;47.716;9.070;2023-12-14T07:19:06;96575.16;;;8.60;100.00
6514;BME280;3290;47.716;9.070;2023-12-14T07:21:31;96579.78;;;8.58;100.00
6514;BME280;3290;47.716;9.070;2023-12-14T07:23:57;96572.91;;;8.70;100.00
6514;BME280;3290;47.716;9.070;2023-12-14T07:26:22;96583.75;;;8.67;100.00
6514;BME280;3290;47.716;9.070;2023-12-14T07:28:48;96581.31;;;8.72;100.00
6514;BME280;3290;47.716;9.070;2023-12-14T07:31:14;96594.97;;;8.74;100.00
6514;BME280;3290;47.716;9.070;2023-12-14T07:33:40;96602.41;;;8.71;100.00
6514;BME280;3290;47.716;9.070;2023-12-14T07:36:05;96609.06;;;8.67;100.00
6514;BME280;3290;47.716;9.070;2023-12-14T07:38:31;96611.47;;;8.68;100.00
6514;BME280;3290;47.716;9.070;2023-12-14T07:40:57;96615.56;;;8.88;100.00
6514;BME280;3290;47.716;9.070;2023-12-14T07:43:23;96609.78;;;8.80;100.00
6514;BME280;3290;47.716;9.070;2023-12-14T07:45:48;96623.00;;;8.85;100.00
6514;BME280;3290;47.716;9.070;2023-12-14T07:48:14;96626.25;;;8.80;100.00
6514;BME280;3290;47.716;9.070;2023-12-14T07:50:39;96633.91;;;8.82;100.00
6514;BME280;3290;47.716;9.070;2023-12-14T07:53:04;96642.63;;;8.94;100.00
6514;BME280;3290;47.716;9.070;2023-12-14T07:55:30;96639.44;;;8.92;100.00
6514;BME280;3290;47.716;9.070;2023-12-14T07:57:56;96642.16;;;8.79;100.00
6514;BME280;3290;47.716;9.070;2023-12-14T08:00:21;96648.31;;;8.91;100.00
6514;BME280;3290;47.716;9.070;2023-12-14T08:02:47;96655.00;;;8.80;100.00
6514;BME280;3290;47.716;9.070;2023-12-14T08:05:12;96653.66;;;8.96;100.00
6514;BME280;3290;47.716;9.070;2023-12-14T08:07:38;96654.53;;;8.90;100.00
6514;BME280;3290;47.716;9.070;2023-12-14T08:10:03;96659.50;;;8.98;100.00
6514;BME280;3290;47.716;9.070;2023-12-14T08:12:29;96664.78;;;8.85;100.00
6514;BME280;3290;47.716;9.070;2023-12-14T08:14:54;96672.03;;;8.83;100.00
6514;BME280;3290;47.716;9.070;2023-12-14T08:17:20;96682.56;;;8.70;100.00
6514;BME280;3290;47.716;9.070;2023-12-14T08:19:46;96681.31;;;8.79;100.00
6514;BME280;3290;47.716;9.070;2023-12-14T08:22:12;96679.69;;;8.84;100.00
6514;BME280;3290;47.716;9.070;2023-12-14T08:24:41;96684.31;;;8.82;100.00
6514;BME280;3290;47.716;9.070;2023-12-14T08:27:07;96691.06;;;8.96;100.00
6514;BME280;3290;47.716;9.070;2023-12-14T08:29:32;96698.72;;;8.98;100.00
6514;BME280;3290;47.716;9.070;2023-12-14T08:31:58;96691.00;;;9.03;100.00
6514;BME280;3290;47.716;9.070;2023-12-14T08:34:25;96711.31;;;9.07;100.00
6514;BME280;3290;47.716;9.070;2023-12-14T08:36:50;96714.69;;;9.08;100.00
6514;BME280;3290;47.716;9.070;2023-12-14T08:39:16;96720.78;;;9.02;100.00
6514;BME280;3290;47.716;9.070;2023-12-14T08:41:41;96723.13;;;9.10;100.00
6514;BME280;3290;47.716;9.070;2023-12-14T08:44:07;96716.91;;;9.11;100.00
6514;BME280;3290;47.716;9.070;2023-12-14T08:46:43;96727.78;;;9.08;100.00
6514;BME280;3290;47.716;9.070;2023-12-14T08:49:08;96737.81;;;9.11;100.00
6514;BME280;3290;47.716;9.070;2023-12-14T08:51:34;96740.22;;;9.73;100.00
6514;BME280;3290;47.716;9.070;2023-12-14T08:53:59;96737.63;;;9.67;100.00
6514;BME280;3290;47.716;9.070;2023-12-14T08:56:24;96738.16;;;9.51;100.00
6514;BME280;3290;47.716;9.070;2023-12-14T08:58:50;96738.81;;;9.47;100.00
6514;BME280;3290;47.716;9.070;2023-12-14T09:01:22;96749.38;;;9.58;100.00
6514;BME280;3290;47.716;9.070;2023-12-14T09:03:49;96751.44;;;9.50;100.00
6514;BME280;3290;47.716;9.070;2023-12-14T09:06:16;96750.66;;;9.49;100.00
6514;BME280;3290;47.716;9.070;2023-12-14T09:08:42;96762.44;;;9.58;100.00
6514;BME280;3290;47.716;9.070;2023-12-14T09:11:08;96763.03;;;9.60;100.00
6514;BME280;3290;47.716;9.070;2023-12-14T09:13:33;96769.34;;;9.77;100.00
6514;BME280;3290;47.716;9.070;2023-12-14T09:15:59;96777.75;;;9.55;100.00
6514;BME280;3290;47.716;9.070;2023-12-14T09:18:24;96779.66;;;9.72;100.00
6514;BME280;3290;47.716;9.070;2023-12-14T09:20:50;96783.13;;;9.66;100.00
6514;BME280;3290;47.716;9.070;2023-12-14T09:23:18;96790.88;;;9.79;100.00
6514;BME280;3290;47.716;9.070;2023-12-14T09:25:47;96792.59;;;9.60;100.00
6514;BME280;3290;47.716;9.070;2023-12-14T09:28:12;96799.66;;;9.60;100.00
6514;BME280;3290;47.716;9.070;2023-12-14T09:30:38;96796.72;;;9.50;100.00
6514;BME280;3290;47.716;9.070;2023-12-14T09:33:03;96811.97;;;9.53;100.00
6514;BME280;3290;47.716;9.070;2023-12-14T09:35:28;96807.97;;;9.51;100.00
6514;BME280;3290;47.716;9.070;2023-12-14T09:37:54;96823.66;;;9.51;100.00
6514;BME280;3290;47.716;9.070;2023-12-14T09:40:22;96823.97;;;9.60;100.00
6514;BME280;3290;47.716;9.070;2023-12-14T09:42:48;96834.13;;;9.44;100.00
6514;BME280;3290;47.716;9.070;2023-12-14T09:45:13;96830.16;;;9.42;100.00
6514;BME280;3290;47.716;9.070;2023-12-14T09:47:38;96841.59;;;9.78;100.00
6514;BME280;3290;47.716;9.070;2023-12-14T09:50:05;96838.56;;;9.50;100.00
6514;BME280;3290;47.716;9.070;2023-12-14T09:52:31;96844.59;;;9.44;100.00
6514;BME280;3290;47.716;9.070;2023-12-14T09:54:58;96841.47;;;9.29;100.00
6514;BME280;3290;47.716;9.070;2023-12-14T09:57:23;96842.94;;;9.56;100.00
6514;BME280;3290;47.716;9.070;2023-12-14T09:59:54;96843.16;;;9.48;100.00
6514;BME280;3290;47.716;9.070;2023-12-14T10:02:20;96841.28;;;9.61;100.00
6514;BME280;3290;47.716;9.070;2023-12-14T10:04:49;96849.31;;;9.66;100.00
6514;BME280;3290;47.716;9.070;2023-12-14T10:07:15;96845.63;;;9.74;100.00
6514;BME280;3290;47.716;9.070;2023-12-14T10:09:41;96842.94;;;9.56;100.00
6514;BME280;3290;47.716;9.070;2023-12-14T10:12:09;96849.59;;;9.52;100.00
6514;BME280;3290;47.716;9.070;2023-12-14T10:14:35;96849.41;;;9.47;100.00
6514;BME280;3290;47.716;9.070;2023-12-14T10:17:21;96846.53;;;9.55;100.00
6514;BME280;3290;47.716;9.070;2023-12-14T10:19:47;96847.06;;;9.70;100.00
6514;BME280;3290;47.716;9.070;2023-12-14T10:22:17;96854.41;;;9.86;100.00
6514;BME280;3290;47.716;9.070;2023-12-14T10:24:48;96853.66;;;9.79;100.00
6514;BME280;3290;47.716;9.070;2023-12-14T10:27:14;96857.53;;;10.07;100.00
6514;BME280;3290;47.716;9.070;2023-12-14T10:29:41;96858.75;;;10.29;100.00
6514;BME280;3290;47.716;9.070;2023-12-14T10:32:07;96863.13;;;10.10;100.00
6514;BME280;3290;47.716;9.070;2023-12-14T10:34:34;96873.19;;;10.13;100.00
6514;BME280;3290;47.716;9.070;2023-12-14T10:37:01;96865.91;;;10.15;100.00
6514;BME280;3290;47.716;9.070;2023-12-14T10:39:29;96874.56;;;9.85;100.00
6514;BME280;3290;47.716;9.070;2023-12-14T10:41:57;96874.31;;;9.87;100.00
6514;BME280;3290;47.716;9.070;2023-12-14T10:44:26;96874.09;;;10.01;100.00
6514;BME280;3290;47.716;9.070;2023-12-14T10:46:54;96876.53;;;9.96;100.00
6514;BME280;3290;47.716;9.070;2023-12-14T10:49:23;96872.44;;;10.06;100.00
6514;BME280;3290;47.716;9.070;2023-12-14T10:51:49;96883.09;;;10.05;100.00
6514;BME280;3290;47.716;9.070;2023-12-14T10:54:15;96893.09;;;9.84;100.00
6514;BME280;3290;47.716;9.070;2023-12-14T10:56:41;96892.13;;;9.72;100.00
6514;BME280;3290;47.716;9.070;2023-12-14T10:59:07;96884.03;;;9.80;100.00
6514;BME280;3290;47.716;9.070;2023-12-14T11:01:32;96897.47;;;9.90;100.00
6514;BME280;3290;47.716;9.070;2023-12-14T11:04:00;96904.81;;;9.75;100.00
6514;BME280;3290;47.716;9.070;2023-12-14T11:06:34;96896.88;;;9.94;100.00
6514;BME280;3290;47.716;9.070;2023-12-14T11:09:09;96909.19;;;9.81;100.00
6514;BME280;3290;47.716;9.070;2023-12-14T11:11:57;96903.84;;;10.06;100.00
6514;BME280;3290;47.716;9.070;2023-12-14T11:14:25;96908.63;;;10.09;100.00
6514;BME280;3290;47.716;9.070;2023-12-14T11:16:54;96916.09;;;9.69;100.00
6514;BME280;3290;47.716;9.070;2023-12-14T11:24:23;96930.88;;;9.88;100.00
6514;BME280;3290;47.716;9.070;2023-12-14T11:26:49;96920.78;;;9.54;100.00
6514;BME280;3290;47.716;9.070;2023-12-14T11:29:15;96930.69;;;9.39;100.00
6514;BME280;3290;47.716;9.070;2023-12-14T11:31:42;96926.22;;;9.59;100.00
6514;BME280;3290;47.716;9.070;2023-12-14T11:34:07;96934.09;;;9.46;100.00
6514;BME280;3290;47.716;9.070;2023-12-14T11:36:33;96937.44;;;9.66;100.00
6514;BME280;3290;47.716;9.070;2023-12-14T11:38:58;96943.38;;;9.42;100.00
6514;BME280;3290;47.716;9.070;2023-12-14T11:41:24;96937.47;;;9.59;100.00
6514;BME280;3290;47.716;9.070;2023-12-14T11:43:51;96943.50;;;9.54;100.00
6514;BME280;3290;47.716;9.070;2023-12-14T11:46:16;96946.69;;;9.68;100.00
6514;BME280;3290;47.716;9.070;2023-12-14T11:48:45;96950.00;;;9.95;100.00
6514;BME280;3290;47.716;9.070;2023-12-14T11:51:15;96961.88;;;9.91;100.00
6514;BME280;3290;47.716;9.070;2023-12-14T11:53:45;96957.91;;;9.82;100.00
6514;BME280;3290;47.716;9.070;2023-12-14T11:56:10;96960.03;;;9.54;100.00
6514;BME280;3290;47.716;9.070;2023-12-14T11:58:36;96970.25;;;9.62;100.00
6514;BME280;3290;47.716;9.070;2023-12-14T12:01:18;96967.34;;;9.83;100.00
6514;BME280;3290;47.716;9.070;2023-12-14T12:03:44;96968.66;;;9.55;100.00
6514;BME280;3290;47.716;9.070;2023-12-14T12:06:20;96971.03;;;9.69;100.00
6514;BME280;3290;47.716;9.070;2023-12-14T12:08:45;96966.38;;;9.71;100.00
6514;BME280;3290;47.716;9.070;2023-12-14T12:11:11;96978.66;;;9.70;100.00
6514;BME280;3290;47.716;9.070;2023-12-14T12:13:40;96965.97;;;9.74;100.00
6514;BME280;3290;47.716;9.070;2023-12-14T12:16:06;96972.81;;;9.75;100.00
6514;BME280;3290;47.716;9.070;2023-12-14T12:18:31;96967.53;;;9.94;100.00
6514;BME280;3290;47.716;9.070;2023-12-14T12:20:56;96970.59;;;9.78;100.00
6514;BME280;3290;47.716;9.070;2023-12-14T12:23:25;96972.56;;;9.83;100.00
6514;BME280;3290;47.716;9.070;2023-12-14T12:25:51;96974.88;;;9.66;100.00
6514;BME280;3290;47.716;9.070;2023-12-14T12:28:16;96967.41;;;9.70;100.00
6514;BME280;3290;47.716;9.070;2023-12-14T12:30:41;96965.91;;;9.37;100.00
6514;BME280;3290;47.716;9.070;2023-12-14T12:33:07;96968.97;;;9.27;100.00
6514;BME280;3290;47.716;9.070;2023-12-14T12:35:33;96972.78;;;9.18;100.00
6514;BME280;3290;47.716;9.070;2023-12-14T12:37:59;96975.38;;;9.18;100.00
6514;BME280;3290;47.716;9.070;2023-12-14T12:40:24;96982.56;;;9.49;100.00
6514;BME280;3290;47.716;9.070;2023-12-14T12:42:55;96988.59;;;9.49;100.00
6514;BME280;3290;47.716;9.070;2023-12-14T12:45:20;96985.25;;;9.17;100.00
6514;BME280;3290;47.716;9.070;2023-12-14T12:47:52;96985.41;;;9.34;100.00
6514;BME280;3290;47.716;9.070;2023-12-14T12:50:18;96989.88;;;9.27;100.00
6514;BME280;3290;47.716;9.070;2023-12-14T12:52:43;96997.88;;;9.32;100.00
6514;BME280;3290;47.716;9.070;2023-12-14T12:55:11;96998.94;;;9.06;100.00
6514;BME280;3290;47.716;9.070;2023-12-14T12:57:37;96994.31;;;9.20;100.00
6514;BME280;3290;47.716;9.070;2023-12-14T13:00:03;96996.28;;;9.31;100.00
6514;BME280;3290;47.716;9.070;2023-12-14T13:02:39;97007.50;;;9.45;100.00
6514;BME280;3290;47.716;9.070;2023-12-14T13:05:09;97008.13;;;9.47;100.00
6514;BME280;3290;47.716;9.070;2023-12-14T13:07:35;97011.09;;;9.63;100.00
6514;BME280;3290;47.716;9.070;2023-12-14T13:10:04;97013.91;;;9.68;100.00
6514;BME280;3290;47.716;9.070;2023-12-14T13:12:31;97008.28;;;9.64;100.00
6514;BME280;3290;47.716;9.070;2023-12-14T13:14:57;97016.56;;;9.42;100.00
6514;BME280;3290;47.716;9.070;2023-12-14T13:17:23;97015.53;;;9.56;100.00
6514;BME280;3290;47.716;9.070;2023-12-14T13:19:48;97018.66;;;9.84;100.00
6514;BME280;3290;47.716;9.070;2023-12-14T13:22:14;97026.91;;;9.87;100.00